sensor_id;sensor_type;location;lat;lon;timestamp;P1;durP1;ratioP1;P2;durP2;ratioP2
53857;SDS011;39763;51.188;6.690;2022-11-20T00:01:23;23.10;;;13.27;;
53857;SDS011;39763;51.188;6.690;2022-11-20T00:02:56;23.92;;;12.50;;
53857;SDS011;39763;51.188;6.690;2022-11-20T00:04:28;22.90;;;12.73;;
53857;SDS011;39763;51.188;6.690;2022-11-20T00:06:00;21.50;;;12.68;;
53857;SDS011;39763;51.188;6.690;2022-11-20T00:07:31;20.73;;;12.32;;
53857;SDS011;39763;51.188;6.690;2022-11-20T00:09:03;20.95;;;12.60;;
53857;SDS011;39763;51.188;6.690;2022-11-20T00:10:36;23.38;;;12.77;;
53857;SDS011;39763;51.188;6.690;2022-11-20T00:12:08;21.33;;;12.10;;
53857;SDS011;39763;51.188;6.690;2022-11-20T00:13:40;22.35;;;13.85;;
53857;SDS011;39763;51.188;6.690;2022-11-20T00:15:13;24.73;;;13.88;;
53857;SDS011;39763;51.188;6.690;2022-11-20T00:16:44;22.77;;;13.00;;
53857;SDS011;39763;51.188;6.690;2022-11-20T00:18:16;25.13;;;13.40;;
53857;SDS011;39763;51.188;6.690;2022-11-20T00:19:48;24.98;;;14.13;;
53857;SDS011;39763;51.188;6.690;2022-11-20T00:21:20;25.08;;;14.77;;
53857;SDS011;39763;51.188;6.690;2022-11-20T00:22:53;21.90;;;12.85;;
53857;SDS011;39763;51.188;6.690;2022-11-20T00:24:24;25.20;;;13.82;;
53857;SDS011;39763;51.188;6.690;2022-11-20T00:25:56;23.80;;;13.40;;
53857;SDS011;39763;51.188;6.690;2022-11-20T00:27:31;24.17;;;13.27;;
53857;SDS011;39763;51.188;6.690;2022-11-20T00:29:03;23.65;;;13.77;;
53857;SDS011;39763;51.188;6.690;2022-11-20T00:30:37;24.92;;;14.00;;
53857;SDS011;39763;51.188;6.690;2022-11-20T00:32:08;21.67;;;13.02;;
53857;SDS011;39763;51.188;6.690;2022-11-20T00:33:40;22.50;;;13.63;;
53857;SDS011;39763;51.188;6.690;2022-11-20T00:35:12;24.85;;;13.80;;
53857;SDS011;39763;51.188;6.690;2022-11-20T00:36:44;23.33;;;14.10;;
53857;SDS011;39763;51.188;6.690;2022-11-20T00:38:16;24.20;;;14.35;;
53857;SDS011;39763;51.188;6.690;2022-11-20T00:39:47;22.00;;;14.07;;
53857;SDS011;39763;51.188;6.690;2022-11-20T00:41:19;24.52;;;13.32;;
53857;SDS011;39763;51.188;6.690;2022-11-20T00:42:51;24.33;;;14.05;;
53857;SDS011;39763;51.188;6.690;2022-11-20T00:44:22;25.33;;;13.88;;
53857;SDS011;39763;51.188;6.690;2022-11-20T00:45:58;24.42;;;14.70;;
53857;SDS011;39763;51.188;6.690;2022-11-20T00:47:31;22.63;;;14.02;;
53857;SDS011;39763;51.188;6.690;2022-11-20T00:49:02;24.77;;;14.10;;
53857;SDS011;39763;51.188;6.690;2022-11-20T00:50:34;21.98;;;13.90;;
53857;SDS011;39763;51.188;6.690;2022-11-20T00:52:06;25.52;;;14.32;;
53857;SDS011;39763;51.188;6.690;2022-11-20T00:53:37;25.42;;;14.35;;
53857;SDS011;39763;51.188;6.690;2022-11-20T00:55:09;21.35;;;13.45;;
53857;SDS011;39763;51.188;6.690;2022-11-20T00:56:41;25.35;;;13.90;;
53857;SDS011;39763;51.188;6.690;2022-11-20T00:58:12;23.35;;;14.38;;
53857;SDS011;39763;51.188;6.690;2022-11-20T00:59:44;23.10;;;13.65;;
53857;SDS011;39763;51.188;6.690;2022-11-20T01:01:18;23.85;;;13.65;;
53857;SDS011;39763;51.188;6.690;2022-11-20T01:02:51;23.67;;;14.05;;
53857;SDS011;39763;51.188;6.690;2022-11-20T01:04:23;23.92;;;13.98;;
53857;SDS011;39763;51.188;6.690;2022-11-20T01:05:54;23.38;;;14.63;;
53857;SDS011;39763;51.188;6.690;2022-11-20T01:07:31;23.55;;;13.73;;
53857;SDS011;39763;51.188;6.690;2022-11-20T01:09:04;23.38;;;14.10;;
53857;SDS011;39763;51.188;6.690;2022-11-20T01:10:40;24.10;;;12.90;;
53857;SDS011;39763;51.188;6.690;2022-11-20T01:12:12;25.25;;;13.88;;
53857;SDS011;39763;51.188;6.690;2022-11-20T01:13:44;24.17;;;12.88;;
53857;SDS011;39763;51.188;6.690;2022-11-20T01:15:16;22.38;;;13.63;;
53857;SDS011;39763;51.188;6.690;2022-11-20T01:16:49;21.73;;;13.05;;
53857;SDS011;39763;51.188;6.690;2022-11-20T01:18:22;25.20;;;14.55;;
53857;SDS011;39763;51.188;6.690;2022-11-20T01:19:54;24.33;;;13.48;;
53857;SDS011;39763;51.188;6.690;2022-11-20T01:21:26;22.83;;;13.82;;
53857;SDS011;39763;51.188;6.690;2022-11-20T01:22:59;23.73;;;14.23;;
53857;SDS011;39763;51.188;6.690;2022-11-20T01:24:31;22.48;;;13.77;;
53857;SDS011;39763;51.188;6.690;2022-11-20T01:26:03;23.10;;;13.65;;
53857;SDS011;39763;51.188;6.690;2022-11-20T01:27:37;21.15;;;13.10;;
53857;SDS011;39763;51.188;6.690;2022-11-20T01:29:09;22.17;;;13.77;;
53857;SDS011;39763;51.188;6.690;2022-11-20T01:30:43;23.67;;;13.70;;
53857;SDS011;39763;51.188;6.690;2022-11-20T01:32:16;23.50;;;13.27;;
53857;SDS011;39763;51.188;6.690;2022-11-20T01:33:49;23.67;;;13.18;;
53857;SDS011;39763;51.188;6.690;2022-11-20T01:35:22;22.08;;;13.32;;
53857;SDS011;39763;51.188;6.690;2022-11-20T01:36:53;24.35;;;14.73;;
53857;SDS011;39763;51.188;6.690;2022-11-20T01:38:25;25.55;;;14.48;;
53857;SDS011;39763;51.188;6.690;2022-11-20T01:39:57;23.08;;;13.32;;
53857;SDS011;39763;51.188;6.690;2022-11-20T01:41:29;22.48;;;13.45;;
53857;SDS011;39763;51.188;6.690;2022-11-20T01:43:21;24.00;;;13.10;;
53857;SDS011;39763;51.188;6.690;2022-11-20T01:44:53;26.00;;;14.13;;
53857;SDS011;39763;51.188;6.690;2022-11-20T01:46:27;23.55;;;13.13;;
53857;SDS011;39763;51.188;6.690;2022-11-20T01:48:00;21.92;;;13.07;;
53857;SDS011;39763;51.188;6.690;2022-11-20T01:49:33;26.90;;;15.07;;
53857;SDS011;39763;51.188;6.690;2022-11-20T01:51:10;26.73;;;13.75;;
53857;SDS011;39763;51.188;6.690;2022-11-20T01:52:48;23.70;;;13.82;;
53857;SDS011;39763;51.188;6.690;2022-11-20T01:54:24;24.73;;;13.52;;
53857;SDS011;39763;51.188;6.690;2022-11-20T01:56:01;24.02;;;14.27;;
53857;SDS011;39763;51.188;6.690;2022-11-20T01:57:36;26.70;;;14.40;;
53857;SDS011;39763;51.188;6.690;2022-11-20T01:59:10;22.40;;;12.88;;
53857;SDS011;39763;51.188;6.690;2022-11-20T02:00:44;21.95;;;12.60;;
53857;SDS011;39763;51.188;6.690;2022-11-20T02:02:16;24.35;;;13.60;;
53857;SDS011;39763;51.188;6.690;2022-11-20T02:03:49;25.30;;;13.75;;
53857;SDS011;39763;51.188;6.690;2022-11-20T02:05:22;21.67;;;12.40;;
53857;SDS011;39763;51.188;6.690;2022-11-20T02:06:59;23.90;;;13.85;;
53857;SDS011;39763;51.188;6.690;2022-11-20T02:08:32;25.13;;;14.27;;
53857;SDS011;39763;51.188;6.690;2022-11-20T02:10:04;21.30;;;12.85;;
53857;SDS011;39763;51.188;6.690;2022-11-20T02:11:36;22.75;;;13.45;;
53857;SDS011;39763;51.188;6.690;2022-11-20T02:13:07;22.77;;;13.95;;
53857;SDS011;39763;51.188;6.690;2022-11-20T02:14:58;24.13;;;14.70;;
53857;SDS011;39763;51.188;6.690;2022-11-20T02:16:30;26.83;;;14.35;;
53857;SDS011;39763;51.188;6.690;2022-11-20T02:18:03;23.90;;;13.98;;
53857;SDS011;39763;51.188;6.690;2022-11-20T02:19:38;23.58;;;13.63;;
53857;SDS011;39763;51.188;6.690;2022-11-20T02:21:13;24.00;;;14.02;;
53857;SDS011;39763;51.188;6.690;2022-11-20T02:22:53;23.95;;;13.90;;
53857;SDS011;39763;51.188;6.690;2022-11-20T02:24:30;28.25;;;14.77;;
53857;SDS011;39763;51.188;6.690;2022-11-20T02:26:02;23.67;;;14.07;;
53857;SDS011;39763;51.188;6.690;2022-11-20T02:27:37;25.02;;;14.27;;
53857;SDS011;39763;51.188;6.690;2022-11-20T02:29:09;21.77;;;13.23;;
53857;SDS011;39763;51.188;6.690;2022-11-20T02:30:40;26.60;;;14.55;;
53857;SDS011;39763;51.188;6.690;2022-11-20T02:32:17;26.15;;;14.95;;
53857;SDS011;39763;51.188;6.690;2022-11-20T02:33:53;27.70;;;14.07;;
53857;SDS011;39763;51.188;6.690;2022-11-20T02:35:39;24.38;;;13.93;;
53857;SDS011;39763;51.188;6.690;2022-11-20T02:37:13;26.10;;;15.32;;
53857;SDS011;39763;51.188;6.690;2022-11-20T02:38:46;23.38;;;13.18;;
53857;SDS011;39763;51.188;6.690;2022-11-20T02:40:20;24.98;;;14.18;;
53857;SDS011;39763;51.188;6.690;2022-11-20T02:41:53;26.33;;;13.80;;
53857;SDS011;39763;51.188;6.690;2022-11-20T02:43:25;24.23;;;14.90;;
53857;SDS011;39763;51.188;6.690;2022-11-20T02:44:56;24.85;;;14.27;;
53857;SDS011;39763;51.188;6.690;2022-11-20T02:46:28;23.67;;;13.93;;
53857;SDS011;39763;51.188;6.690;2022-11-20T02:48:00;24.17;;;14.52;;
53857;SDS011;39763;51.188;6.690;2022-11-20T02:49:32;24.98;;;15.07;;
53857;SDS011;39763;51.188;6.690;2022-11-20T02:51:04;23.55;;;14.10;;
53857;SDS011;39763;51.188;6.690;2022-11-20T02:52:36;25.55;;;13.77;;
53857;SDS011;39763;51.188;6.690;2022-11-20T02:54:07;29.08;;;14.93;;
53857;SDS011;39763;51.188;6.690;2022-11-20T02:55:40;26.25;;;14.20;;
53857;SDS011;39763;51.188;6.690;2022-11-20T02:57:12;23.45;;;13.88;;
53857;SDS011;39763;51.188;6.690;2022-11-20T02:58:44;27.77;;;15.02;;
53857;SDS011;39763;51.188;6.690;2022-11-20T03:00:15;26.02;;;13.98;;
53857;SDS011;39763;51.188;6.690;2022-11-20T03:01:47;25.25;;;13.82;;
53857;SDS011;39763;51.188;6.690;2022-11-20T03:03:19;24.00;;;13.77;;
53857;SDS011;39763;51.188;6.690;2022-11-20T03:04:50;23.55;;;13.38;;
53857;SDS011;39763;51.188;6.690;2022-11-20T03:06:22;23.02;;;13.80;;
53857;SDS011;39763;51.188;6.690;2022-11-20T03:07:54;22.75;;;13.43;;
53857;SDS011;39763;51.188;6.690;2022-11-20T03:09:25;23.20;;;13.18;;
53857;SDS011;39763;51.188;6.690;2022-11-20T03:11:02;21.30;;;13.48;;
53857;SDS011;39763;51.188;6.690;2022-11-20T03:12:35;22.80;;;14.02;;
53857;SDS011;39763;51.188;6.690;2022-11-20T03:14:07;25.65;;;14.60;;
53857;SDS011;39763;51.188;6.690;2022-11-20T03:15:38;23.38;;;13.65;;
53857;SDS011;39763;51.188;6.690;2022-11-20T03:17:10;26.33;;;15.05;;
53857;SDS011;39763;51.188;6.690;2022-11-20T03:18:42;26.30;;;13.82;;
53857;SDS011;39763;51.188;6.690;2022-11-20T03:20:14;25.08;;;14.45;;
53857;SDS011;39763;51.188;6.690;2022-11-20T03:21:46;25.33;;;14.77;;
53857;SDS011;39763;51.188;6.690;2022-11-20T03:23:18;24.50;;;14.57;;
53857;SDS011;39763;51.188;6.690;2022-11-20T03:24:50;25.73;;;14.25;;
53857;SDS011;39763;51.188;6.690;2022-11-20T03:26:24;21.38;;;13.68;;
53857;SDS011;39763;51.188;6.690;2022-11-20T03:27:56;25.83;;;13.88;;
53857;SDS011;39763;51.188;6.690;2022-11-20T03:29:28;25.25;;;13.23;;
53857;SDS011;39763;51.188;6.690;2022-11-20T03:31:04;24.20;;;13.95;;
53857;SDS011;39763;51.188;6.690;2022-11-20T03:32:36;26.65;;;14.10;;
53857;SDS011;39763;51.188;6.690;2022-11-20T03:34:09;21.33;;;13.50;;
53857;SDS011;39763;51.188;6.690;2022-11-20T03:35:41;23.65;;;14.68;;
53857;SDS011;39763;51.188;6.690;2022-11-20T03:37:13;23.23;;;13.05;;
53857;SDS011;39763;51.188;6.690;2022-11-20T03:38:45;26.00;;;14.50;;
53857;SDS011;39763;51.188;6.690;2022-11-20T03:40:17;23.75;;;14.20;;
53857;SDS011;39763;51.188;6.690;2022-11-20T03:41:50;24.20;;;13.70;;
53857;SDS011;39763;51.188;6.690;2022-11-20T03:43:22;22.83;;;12.85;;
53857;SDS011;39763;51.188;6.690;2022-11-20T03:44:53;26.13;;;15.05;;
53857;SDS011;39763;51.188;6.690;2022-11-20T03:46:25;25.33;;;14.65;;
53857;SDS011;39763;51.188;6.690;2022-11-20T03:47:57;23.30;;;14.20;;
53857;SDS011;39763;51.188;6.690;2022-11-20T03:49:29;24.73;;;14.02;;
53857;SDS011;39763;51.188;6.690;2022-11-20T03:51:07;25.63;;;13.88;;
53857;SDS011;39763;51.188;6.690;2022-11-20T03:52:40;26.42;;;14.23;;
53857;SDS011;39763;51.188;6.690;2022-11-20T03:54:13;25.40;;;14.35;;
53857;SDS011;39763;51.188;6.690;2022-11-20T03:55:44;24.83;;;13.85;;
53857;SDS011;39763;51.188;6.690;2022-11-20T03:57:17;25.73;;;14.80;;
53857;SDS011;39763;51.188;6.690;2022-11-20T03:58:49;26.52;;;14.32;;
53857;SDS011;39763;51.188;6.690;2022-11-20T04:00:21;24.88;;;14.65;;
53857;SDS011;39763;51.188;6.690;2022-11-20T04:01:53;26.38;;;15.10;;
53857;SDS011;39763;51.188;6.690;2022-11-20T04:03:25;24.52;;;14.50;;
53857;SDS011;39763;51.188;6.690;2022-11-20T04:04:56;26.13;;;15.07;;
53857;SDS011;39763;51.188;6.690;2022-11-20T04:06:29;25.60;;;14.50;;
53857;SDS011;39763;51.188;6.690;2022-11-20T04:08:04;25.35;;;14.30;;
53857;SDS011;39763;51.188;6.690;2022-11-20T04:09:36;27.25;;;15.02;;
53857;SDS011;39763;51.188;6.690;2022-11-20T04:11:09;25.88;;;14.68;;
53857;SDS011;39763;51.188;6.690;2022-11-20T04:12:42;25.15;;;14.65;;
53857;SDS011;39763;51.188;6.690;2022-11-20T04:14:14;27.45;;;16.15;;
53857;SDS011;39763;51.188;6.690;2022-11-20T04:15:47;26.00;;;15.55;;
53857;SDS011;39763;51.188;6.690;2022-11-20T04:17:18;26.42;;;14.52;;
53857;SDS011;39763;51.188;6.690;2022-11-20T04:18:51;27.33;;;14.52;;
53857;SDS011;39763;51.188;6.690;2022-11-20T04:20:23;28.27;;;14.70;;
53857;SDS011;39763;51.188;6.690;2022-11-20T04:21:55;26.58;;;14.65;;
53857;SDS011;39763;51.188;6.690;2022-11-20T04:23:27;26.58;;;14.48;;
53857;SDS011;39763;51.188;6.690;2022-11-20T04:24:59;25.20;;;14.77;;
53857;SDS011;39763;51.188;6.690;2022-11-20T04:26:31;25.65;;;14.80;;
53857;SDS011;39763;51.188;6.690;2022-11-20T04:28:04;26.15;;;13.95;;
53857;SDS011;39763;51.188;6.690;2022-11-20T04:29:35;26.92;;;14.98;;
53857;SDS011;39763;51.188;6.690;2022-11-20T04:31:08;26.58;;;14.70;;
53857;SDS011;39763;51.188;6.690;2022-11-20T04:32:40;26.73;;;14.88;;
53857;SDS011;39763;51.188;6.690;2022-11-20T04:34:12;25.52;;;14.60;;
53857;SDS011;39763;51.188;6.690;2022-11-20T04:35:44;27.90;;;15.88;;
53857;SDS011;39763;51.188;6.690;2022-11-20T04:37:18;23.77;;;14.23;;
53857;SDS011;39763;51.188;6.690;2022-11-20T04:38:50;23.88;;;14.70;;
53857;SDS011;39763;51.188;6.690;2022-11-20T04:40:27;25.73;;;14.85;;
53857;SDS011;39763;51.188;6.690;2022-11-20T04:41:59;27.95;;;14.55;;
53857;SDS011;39763;51.188;6.690;2022-11-20T04:43:52;27.45;;;14.70;;
53857;SDS011;39763;51.188;6.690;2022-11-20T04:45:29;29.45;;;15.43;;
53857;SDS011;39763;51.188;6.690;2022-11-20T04:47:01;27.42;;;15.60;;
53857;SDS011;39763;51.188;6.690;2022-11-20T04:48:34;26.67;;;15.27;;
53857;SDS011;39763;51.188;6.690;2022-11-20T04:50:06;25.88;;;14.68;;
53857;SDS011;39763;51.188;6.690;2022-11-20T04:51:39;27.70;;;16.05;;
53857;SDS011;39763;51.188;6.690;2022-11-20T04:53:10;26.27;;;14.65;;
53857;SDS011;39763;51.188;6.690;2022-11-20T04:54:42;24.30;;;14.70;;
53857;SDS011;39763;51.188;6.690;2022-11-20T04:56:14;28.50;;;15.57;;
53857;SDS011;39763;51.188;6.690;2022-11-20T04:57:49;25.60;;;14.95;;
53857;SDS011;39763;51.188;6.690;2022-11-20T04:59:23;25.83;;;15.48;;
53857;SDS011;39763;51.188;6.690;2022-11-20T05:01:00;25.50;;;15.40;;
53857;SDS011;39763;51.188;6.690;2022-11-20T05:02:33;28.77;;;15.65;;
53857;SDS011;39763;51.188;6.690;2022-11-20T05:04:04;26.38;;;14.85;;
53857;SDS011;39763;51.188;6.690;2022-11-20T05:05:37;25.27;;;15.63;;
53857;SDS011;39763;51.188;6.690;2022-11-20T05:07:08;26.85;;;16.23;;
53857;SDS011;39763;51.188;6.690;2022-11-20T05:08:40;27.65;;;14.95;;
53857;SDS011;39763;51.188;6.690;2022-11-20T05:10:12;27.25;;;16.13;;
53857;SDS011;39763;51.188;6.690;2022-11-20T05:11:44;24.20;;;14.52;;
53857;SDS011;39763;51.188;6.690;2022-11-20T05:13:21;25.27;;;15.10;;
53857;SDS011;39763;51.188;6.690;2022-11-20T05:14:54;28.27;;;15.52;;
53857;SDS011;39763;51.188;6.690;2022-11-20T05:16:26;26.98;;;15.52;;
53857;SDS011;39763;51.188;6.690;2022-11-20T05:17:58;26.05;;;15.38;;
53857;SDS011;39763;51.188;6.690;2022-11-20T05:19:29;27.95;;;14.52;;
53857;SDS011;39763;51.188;6.690;2022-11-20T05:21:01;27.67;;;15.48;;
53857;SDS011;39763;51.188;6.690;2022-11-20T05:22:33;28.17;;;15.65;;
53857;SDS011;39763;51.188;6.690;2022-11-20T05:24:05;26.58;;;14.63;;
53857;SDS011;39763;51.188;6.690;2022-11-20T05:25:38;29.33;;;15.65;;
53857;SDS011;39763;51.188;6.690;2022-11-20T05:27:09;27.02;;;15.20;;
53857;SDS011;39763;51.188;6.690;2022-11-20T05:28:41;27.20;;;15.65;;
53857;SDS011;39763;51.188;6.690;2022-11-20T05:30:14;27.92;;;15.63;;
53857;SDS011;39763;51.188;6.690;2022-11-20T05:31:46;27.25;;;16.00;;
53857;SDS011;39763;51.188;6.690;2022-11-20T05:33:18;23.85;;;14.38;;
53857;SDS011;39763;51.188;6.690;2022-11-20T05:34:50;26.70;;;15.85;;
53857;SDS011;39763;51.188;6.690;2022-11-20T05:36:21;26.33;;;14.93;;
53857;SDS011;39763;51.188;6.690;2022-11-20T05:37:53;26.08;;;15.07;;
53857;SDS011;39763;51.188;6.690;2022-11-20T05:39:25;24.55;;;15.15;;
53857;SDS011;39763;51.188;6.690;2022-11-20T05:41:02;25.30;;;15.02;;
53857;SDS011;39763;51.188;6.690;2022-11-20T05:42:34;24.75;;;14.52;;
53857;SDS011;39763;51.188;6.690;2022-11-20T05:44:06;25.40;;;14.82;;
53857;SDS011;39763;51.188;6.690;2022-11-20T05:45:39;26.23;;;15.13;;
53857;SDS011;39763;51.188;6.690;2022-11-20T05:47:11;27.90;;;15.57;;
53857;SDS011;39763;51.188;6.690;2022-11-20T05:48:43;24.23;;;14.63;;
53857;SDS011;39763;51.188;6.690;2022-11-20T05:50:16;27.30;;;15.57;;
53857;SDS011;39763;51.188;6.690;2022-11-20T05:51:47;24.30;;;14.88;;
53857;SDS011;39763;51.188;6.690;2022-11-20T05:53:19;25.88;;;15.23;;
53857;SDS011;39763;51.188;6.690;2022-11-20T05:54:51;26.00;;;14.48;;
53857;SDS011;39763;51.188;6.690;2022-11-20T05:56:23;24.83;;;14.95;;
53857;SDS011;39763;51.188;6.690;2022-11-20T05:57:54;26.77;;;14.75;;
53857;SDS011;39763;51.188;6.690;2022-11-20T05:59:26;25.90;;;15.35;;
53857;SDS011;39763;51.188;6.690;2022-11-20T06:01:04;25.85;;;15.00;;
53857;SDS011;39763;51.188;6.690;2022-11-20T06:02:36;27.17;;;15.50;;
53857;SDS011;39763;51.188;6.690;2022-11-20T06:04:08;27.23;;;14.85;;
53857;SDS011;39763;51.188;6.690;2022-11-20T06:05:40;26.33;;;15.73;;
53857;SDS011;39763;51.188;6.690;2022-11-20T06:07:11;25.52;;;14.32;;
53857;SDS011;39763;51.188;6.690;2022-11-20T06:08:43;25.00;;;15.13;;
53857;SDS011;39763;51.188;6.690;2022-11-20T06:10:15;23.83;;;14.55;;
53857;SDS011;39763;51.188;6.690;2022-11-20T06:11:47;26.02;;;15.25;;
53857;SDS011;39763;51.188;6.690;2022-11-20T06:13:19;26.75;;;14.65;;
53857;SDS011;39763;51.188;6.690;2022-11-20T06:14:50;25.30;;;14.55;;
53857;SDS011;39763;51.188;6.690;2022-11-20T06:16:23;25.92;;;15.30;;
53857;SDS011;39763;51.188;6.690;2022-11-20T06:17:55;27.73;;;15.23;;
53857;SDS011;39763;51.188;6.690;2022-11-20T06:19:27;24.70;;;14.60;;
53857;SDS011;39763;51.188;6.690;2022-11-20T06:20:59;27.58;;;16.23;;
53857;SDS011;39763;51.188;6.690;2022-11-20T06:22:32;26.65;;;15.60;;
53857;SDS011;39763;51.188;6.690;2022-11-20T06:24:04;26.58;;;14.82;;
53857;SDS011;39763;51.188;6.690;2022-11-20T06:25:37;28.10;;;15.18;;
53857;SDS011;39763;51.188;6.690;2022-11-20T06:27:09;27.88;;;15.10;;
53857;SDS011;39763;51.188;6.690;2022-11-20T06:28:40;28.15;;;16.63;;
53857;SDS011;39763;51.188;6.690;2022-11-20T06:30:12;28.98;;;16.67;;
53857;SDS011;39763;51.188;6.690;2022-11-20T06:31:45;30.75;;;16.30;;
53857;SDS011;39763;51.188;6.690;2022-11-20T06:33:17;27.08;;;15.90;;
53857;SDS011;39763;51.188;6.690;2022-11-20T06:34:49;28.27;;;16.70;;
53857;SDS011;39763;51.188;6.690;2022-11-20T06:36:21;25.77;;;15.32;;
53857;SDS011;39763;51.188;6.690;2022-11-20T06:37:53;27.73;;;15.80;;
53857;SDS011;39763;51.188;6.690;2022-11-20T06:39:27;24.13;;;15.10;;
53857;SDS011;39763;51.188;6.690;2022-11-20T06:40:58;27.02;;;16.75;;
53857;SDS011;39763;51.188;6.690;2022-11-20T06:42:30;25.13;;;15.68;;
53857;SDS011;39763;51.188;6.690;2022-11-20T06:44:03;28.30;;;15.88;;
53857;SDS011;39763;51.188;6.690;2022-11-20T06:45:35;26.08;;;15.35;;
53857;SDS011;39763;51.188;6.690;2022-11-20T06:47:08;27.23;;;15.70;;
53857;SDS011;39763;51.188;6.690;2022-11-20T06:48:40;28.75;;;16.33;;
53857;SDS011;39763;51.188;6.690;2022-11-20T06:50:12;26.30;;;15.10;;
53857;SDS011;39763;51.188;6.690;2022-11-20T06:51:43;27.55;;;16.40;;
53857;SDS011;39763;51.188;6.690;2022-11-20T06:53:15;29.38;;;17.13;;
53857;SDS011;39763;51.188;6.690;2022-11-20T06:54:47;30.02;;;16.23;;
53857;SDS011;39763;51.188;6.690;2022-11-20T06:56:18;26.48;;;15.55;;
53857;SDS011;39763;51.188;6.690;2022-11-20T06:57:50;25.23;;;15.82;;
53857;SDS011;39763;51.188;6.690;2022-11-20T06:59:27;27.13;;;15.55;;
53857;SDS011;39763;51.188;6.690;2022-11-20T07:00:59;25.83;;;15.23;;
53857;SDS011;39763;51.188;6.690;2022-11-20T07:02:32;26.02;;;15.82;;
53857;SDS011;39763;51.188;6.690;2022-11-20T07:04:04;25.33;;;14.82;;
53857;SDS011;39763;51.188;6.690;2022-11-20T07:05:35;27.27;;;16.00;;
53857;SDS011;39763;51.188;6.690;2022-11-20T07:07:08;26.55;;;15.45;;
53857;SDS011;39763;51.188;6.690;2022-11-20T07:08:40;27.70;;;17.08;;
53857;SDS011;39763;51.188;6.690;2022-11-20T07:10:12;27.55;;;16.67;;
53857;SDS011;39763;51.188;6.690;2022-11-20T07:11:43;26.83;;;16.40;;
53857;SDS011;39763;51.188;6.690;2022-11-20T07:13:15;27.10;;;16.05;;
53857;SDS011;39763;51.188;6.690;2022-11-20T07:14:46;27.17;;;16.85;;
53857;SDS011;39763;51.188;6.690;2022-11-20T07:16:18;30.27;;;17.92;;
53857;SDS011;39763;51.188;6.690;2022-11-20T07:17:51;28.73;;;17.25;;
53857;SDS011;39763;51.188;6.690;2022-11-20T07:19:23;31.40;;;17.08;;
53857;SDS011;39763;51.188;6.690;2022-11-20T07:20:55;27.65;;;16.63;;
53857;SDS011;39763;51.188;6.690;2022-11-20T07:22:27;34.30;;;17.55;;
53857;SDS011;39763;51.188;6.690;2022-11-20T07:23:58;32.17;;;17.92;;
53857;SDS011;39763;51.188;6.690;2022-11-20T07:25:30;29.88;;;16.90;;
53857;SDS011;39763;51.188;6.690;2022-11-20T07:27:02;28.42;;;16.60;;
53857;SDS011;39763;51.188;6.690;2022-11-20T07:28:33;26.85;;;16.73;;
53857;SDS011;39763;51.188;6.690;2022-11-20T07:30:06;27.50;;;16.23;;
53857;SDS011;39763;51.188;6.690;2022-11-20T07:31:38;26.63;;;16.77;;
53857;SDS011;39763;51.188;6.690;2022-11-20T07:33:11;31.58;;;16.85;;
53857;SDS011;39763;51.188;6.690;2022-11-20T07:34:43;28.95;;;16.77;;
53857;SDS011;39763;51.188;6.690;2022-11-20T07:36:15;29.35;;;17.90;;
53857;SDS011;39763;51.188;6.690;2022-11-20T07:37:46;28.63;;;17.50;;
53857;SDS011;39763;51.188;6.690;2022-11-20T07:39:19;26.98;;;16.83;;
53857;SDS011;39763;51.188;6.690;2022-11-20T07:40:53;28.08;;;16.80;;
53857;SDS011;39763;51.188;6.690;2022-11-20T07:42:25;29.35;;;17.50;;
53857;SDS011;39763;51.188;6.690;2022-11-20T07:44:00;28.25;;;17.65;;
53857;SDS011;39763;51.188;6.690;2022-11-20T07:45:32;26.30;;;16.60;;
53857;SDS011;39763;51.188;6.690;2022-11-20T07:47:04;27.73;;;16.58;;
53857;SDS011;39763;51.188;6.690;2022-11-20T07:48:37;27.60;;;15.90;;
53857;SDS011;39763;51.188;6.690;2022-11-20T07:50:09;28.40;;;16.77;;
53857;SDS011;39763;51.188;6.690;2022-11-20T07:51:41;27.88;;;16.42;;
53857;SDS011;39763;51.188;6.690;2022-11-20T07:53:12;28.40;;;15.63;;
53857;SDS011;39763;51.188;6.690;2022-11-20T07:54:45;30.20;;;17.40;;
53857;SDS011;39763;51.188;6.690;2022-11-20T07:56:16;25.98;;;16.08;;
53857;SDS011;39763;51.188;6.690;2022-11-20T07:57:53;27.15;;;16.48;;
53857;SDS011;39763;51.188;6.690;2022-11-20T07:59:25;27.27;;;15.68;;
53857;SDS011;39763;51.188;6.690;2022-11-20T08:00:57;29.52;;;16.85;;
53857;SDS011;39763;51.188;6.690;2022-11-20T08:02:29;28.05;;;16.92;;
53857;SDS011;39763;51.188;6.690;2022-11-20T08:04:02;27.67;;;15.77;;
53857;SDS011;39763;51.188;6.690;2022-11-20T08:05:33;29.15;;;17.23;;
53857;SDS011;39763;51.188;6.690;2022-11-20T08:07:05;27.63;;;16.77;;
53857;SDS011;39763;51.188;6.690;2022-11-20T08:08:37;30.55;;;17.95;;
53857;SDS011;39763;51.188;6.690;2022-11-20T08:10:14;29.65;;;16.55;;
53857;SDS011;39763;51.188;6.690;2022-11-20T08:11:49;28.50;;;17.73;;
53857;SDS011;39763;51.188;6.690;2022-11-20T08:15:29;31.27;;;16.65;;
53857;SDS011;39763;51.188;6.690;2022-11-20T08:17:01;27.42;;;16.52;;
53857;SDS011;39763;51.188;6.690;2022-11-20T08:18:33;29.95;;;16.25;;
53857;SDS011;39763;51.188;6.690;2022-11-20T08:20:07;29.02;;;17.00;;
53857;SDS011;39763;51.188;6.690;2022-11-20T08:21:39;28.50;;;16.25;;
53857;SDS011;39763;51.188;6.690;2022-11-20T08:23:11;25.98;;;15.63;;
53857;SDS011;39763;51.188;6.690;2022-11-20T08:24:43;27.15;;;16.77;;
53857;SDS011;39763;51.188;6.690;2022-11-20T08:26:15;29.00;;;18.92;;
53857;SDS011;39763;51.188;6.690;2022-11-20T08:27:46;27.05;;;16.55;;
53857;SDS011;39763;51.188;6.690;2022-11-20T08:29:18;26.73;;;15.93;;
53857;SDS011;39763;51.188;6.690;2022-11-20T08:30:50;29.02;;;16.50;;
53857;SDS011;39763;51.188;6.690;2022-11-20T08:32:22;28.08;;;17.15;;
53857;SDS011;39763;51.188;6.690;2022-11-20T08:33:53;26.80;;;16.60;;
53857;SDS011;39763;51.188;6.690;2022-11-20T08:35:27;29.40;;;16.60;;
53857;SDS011;39763;51.188;6.690;2022-11-20T08:36:58;29.45;;;15.98;;
53857;SDS011;39763;51.188;6.690;2022-11-20T08:38:30;30.08;;;16.95;;
53857;SDS011;39763;51.188;6.690;2022-11-20T08:40:03;29.10;;;16.90;;
53857;SDS011;39763;51.188;6.690;2022-11-20T08:41:35;28.55;;;16.55;;
53857;SDS011;39763;51.188;6.690;2022-11-20T08:43:08;29.73;;;16.70;;
53857;SDS011;39763;51.188;6.690;2022-11-20T08:44:39;26.80;;;16.92;;
53857;SDS011;39763;51.188;6.690;2022-11-20T08:46:11;30.02;;;17.30;;
53857;SDS011;39763;51.188;6.690;2022-11-20T08:47:43;28.02;;;17.27;;
53857;SDS011;39763;51.188;6.690;2022-11-20T08:49:15;25.85;;;16.40;;
53857;SDS011;39763;51.188;6.690;2022-11-20T08:50:48;29.20;;;17.75;;
53857;SDS011;39763;51.188;6.690;2022-11-20T08:52:20;28.42;;;16.95;;
53857;SDS011;39763;51.188;6.690;2022-11-20T08:53:51;26.83;;;16.40;;
53857;SDS011;39763;51.188;6.690;2022-11-20T08:55:23;25.48;;;16.38;;
53857;SDS011;39763;51.188;6.690;2022-11-20T08:56:56;29.35;;;17.52;;
53857;SDS011;39763;51.188;6.690;2022-11-20T08:58:27;27.58;;;16.70;;
53857;SDS011;39763;51.188;6.690;2022-11-20T09:00:02;28.27;;;16.83;;
53857;SDS011;39763;51.188;6.690;2022-11-20T09:01:37;29.20;;;17.13;;
53857;SDS011;39763;51.188;6.690;2022-11-20T09:03:10;27.25;;;16.17;;
53857;SDS011;39763;51.188;6.690;2022-11-20T09:04:41;27.73;;;16.55;;